createdAt,value
2018-04-10T00:02:09.874Z,87.70
2018-04-10T00:04:37.128Z,87.90
2018-04-10T00:07:03.654Z,87.80
2018-04-10T00:09:30.253Z,87.90
2018-04-10T00:11:56.723Z,87.40
2018-04-10T00:14:23.247Z,87.60
2018-04-10T00:16:49.771Z,87.80
2018-04-10T00:19:17.095Z,87.10
2018-04-10T00:21:43.659Z,87.00
2018-04-10T00:24:10.170Z,87.00
2018-04-10T00:26:36.770Z,87.00
2018-04-10T00:29:03.389Z,87.40
2018-04-10T00:31:29.917Z,87.50
2018-04-10T00:33:56.411Z,87.10
2018-04-10T00:36:22.925Z,86.90
2018-04-10T00:38:50.267Z,87.90
2018-04-10T00:41:17.484Z,88.80
2018-04-10T00:43:44.108Z,88.70
2018-04-10T00:46:10.623Z,88.60
2018-04-10T00:48:37.167Z,88.60
2018-04-10T00:51:03.698Z,88.40
2018-04-10T00:53:38.330Z,88.70
2018-04-10T00:56:04.904Z,89.00
2018-04-10T00:58:31.502Z,89.00
2018-04-10T01:00:57.982Z,89.40
2018-04-10T01:03:24.547Z,89.20
2018-04-10T01:05:51.878Z,89.60
2018-04-10T01:08:18.415Z,89.50
2018-04-10T01:10:44.879Z,90.00
2018-04-10T01:13:12.152Z,90.30
2018-04-10T01:15:38.682Z,90.30
2018-04-10T01:18:05.861Z,90.30
2018-04-10T01:20:32.353Z,90.20
2018-04-10T01:22:59.025Z,90.40
2018-04-10T01:25:25.506Z,90.40
2018-04-10T01:27:52.737Z,90.40
2018-04-10T01:30:19.340Z,90.40
2018-04-10T01:32:45.867Z,90.40
2018-04-10T01:35:12.307Z,90.40
2018-04-10T01:37:43.672Z,90.30
2018-04-10T01:40:10.186Z,90.30
2018-04-10T01:42:36.613Z,90.40
2018-04-10T01:45:03.846Z,90.10
2018-04-10T01:47:33.986Z,90.00
2018-04-10T01:50:01.195Z,90.00
2018-04-10T01:52:27.685Z,90.00
2018-04-10T01:54:54.345Z,90.00
2018-04-10T01:57:20.923Z,90.10
2018-04-10T01:59:47.409Z,90.20
2018-04-10T02:02:13.911Z,88.90
2018-04-10T02:04:41.223Z,90.10
2018-04-10T02:07:07.715Z,90.10
2018-04-10T02:09:34.303Z,89.80
2018-04-10T02:12:00.855Z,89.20
2018-04-10T02:14:27.353Z,88.90
2018-04-10T02:16:54.636Z,88.40
2018-04-10T02:19:21.108Z,88.40
2018-04-10T02:21:47.575Z,88.20
2018-04-10T02:24:14.808Z,87.70
2018-04-10T02:26:41.299Z,87.60
2018-04-10T02:29:08.662Z,86.80
2018-04-10T02:31:35.964Z,86.90
2018-04-10T02:34:02.427Z,86.80
2018-04-10T02:36:28.876Z,86.50
2018-04-10T02:38:55.368Z,86.40
2018-04-10T02:41:21.864Z,86.40
2018-04-10T02:43:48.383Z,86.50
2018-04-10T02:46:15.666Z,85.90
2018-04-10T02:48:43.144Z,85.80
2018-04-10T02:51:09.621Z,85.80
2018-04-10T02:53:36.055Z,86.00
2018-04-10T02:56:02.589Z,85.70
2018-04-10T02:58:29.018Z,85.70
2018-04-10T03:00:55.554Z,85.80
2018-04-10T03:03:22.138Z,85.70
2018-04-10T03:05:48.565Z,85.60
2018-04-10T03:08:18.656Z,85.50
2018-04-10T03:10:45.160Z,85.50
2018-04-10T03:13:11.714Z,85.50
2018-04-10T03:15:38.228Z,85.50
2018-04-10T03:18:04.800Z,85.60
2018-04-10T03:20:32.080Z,85.10
2018-04-10T03:22:58.610Z,85.10
2018-04-10T03:25:25.087Z,85.40
2018-04-10T03:27:53.683Z,85.60
2018-04-10T03:30:20.272Z,85.70
2018-04-10T03:32:46.843Z,85.50
2018-04-10T03:35:13.336Z,85.70
2018-04-10T03:37:44.144Z,85.50
2018-04-10T03:40:10.674Z,85.40
2018-04-10T03:42:37.145Z,85.40
2018-04-10T03:45:04.363Z,85.40
2018-04-10T03:47:30.906Z,85.30
2018-04-10T03:49:57.372Z,85.50
2018-04-10T03:52:24.568Z,85.90
2018-04-10T03:54:51.100Z,85.80
2018-04-10T03:57:17.570Z,85.60
2018-04-10T03:59:44.066Z,85.80
2018-04-10T04:02:10.576Z,85.10
2018-04-10T04:04:37.199Z,85.40
2018-04-10T04:07:07.548Z,85.30
2018-04-10T04:09:34.044Z,85.40
2018-04-10T04:12:08.220Z,84.90
2018-04-10T04:14:34.800Z,85.00
2018-04-10T04:17:13.678Z,84.90
2018-04-10T04:19:52.344Z,85.00
2018-04-10T04:22:31.020Z,85.00
2018-04-10T04:24:57.624Z,85.10
2018-04-10T04:27:24.267Z,84.90
2018-04-10T04:29:50.904Z,85.10
2018-04-10T04:32:17.412Z,85.10
2018-04-10T04:34:43.828Z,85.50
2018-04-10T04:37:10.305Z,85.10
2018-04-10T04:39:36.751Z,85.00
2018-04-10T04:42:03.285Z,85.00
2018-04-10T04:44:29.796Z,85.20
2018-04-10T04:46:56.969Z,85.60
2018-04-10T04:49:23.451Z,85.50
2018-04-10T04:51:49.883Z,85.30
2018-04-10T04:54:16.403Z,85.50
2018-04-10T04:56:42.768Z,85.70
2018-04-10T04:59:09.174Z,85.70
2018-04-10T05:01:35.588Z,86.10
2018-04-10T05:04:01.961Z,85.50
2018-04-10T05:06:28.436Z,85.40
2018-04-10T05:08:54.820Z,85.40
2018-04-10T05:11:21.299Z,85.20
2018-04-10T05:13:47.742Z,85.30
2018-04-10T05:16:14.228Z,85.70
2018-04-10T05:18:40.651Z,85.00
2018-04-10T05:21:07.055Z,85.00
2018-04-10T05:23:33.531Z,84.90
2018-04-10T05:26:00.027Z,85.20
2018-04-10T05:28:30.200Z,85.20
2018-04-10T05:30:57.305Z,85.30
2018-04-10T05:33:23.691Z,85.20
2018-04-10T05:35:50.829Z,85.20
2018-04-10T05:38:17.941Z,85.40
2018-04-10T05:40:44.329Z,85.30
2018-04-10T05:43:10.763Z,85.50
2018-04-10T05:45:37.175Z,85.40
2018-04-10T05:48:07.360Z,85.30
2018-04-10T05:50:33.769Z,85.30
2018-04-10T05:53:00.153Z,85.70
2018-04-10T05:55:26.573Z,85.80
2018-04-10T05:57:53.975Z,85.60
2018-04-10T06:00:20.400Z,85.50
2018-04-10T06:02:47.527Z,85.60
2018-04-10T06:05:13.851Z,85.50
2018-04-10T06:07:43.667Z,85.40
2018-04-10T06:10:10.089Z,86.20
2018-04-10T06:12:36.665Z,85.90
2018-04-10T06:15:03.114Z,86.00
2018-04-10T06:17:30.532Z,86.20
2018-04-10T06:19:57.983Z,86.00
2018-04-10T06:22:25.417Z,86.30
2018-04-10T06:24:51.864Z,85.90
2018-04-10T06:27:21.466Z,86.10
2018-04-10T06:29:50.070Z,86.10
2018-04-10T06:32:16.416Z,86.00
2018-04-10T06:34:43.483Z,89.40
2018-04-10T06:37:10.559Z,89.80
2018-04-10T06:39:36.892Z,89.80
2018-04-10T06:42:03.218Z,90.20
2018-04-10T06:44:29.571Z,90.00
2018-04-10T06:46:59.535Z,90.10
2018-04-10T06:49:26.654Z,89.70
2018-04-10T06:51:52.980Z,89.60
2018-04-10T06:54:19.379Z,89.80
2018-04-10T06:56:48.970Z,89.60
2018-04-10T06:59:15.304Z,89.10
2018-04-10T07:01:42.420Z,89.30
2018-04-10T07:04:08.750Z,89.30
2018-04-10T07:06:35.086Z,88.00
2018-04-10T07:09:03.015Z,87.10
2018-04-10T07:11:29.343Z,87.10
2018-04-10T07:13:55.679Z,86.40
2018-04-10T07:16:21.998Z,86.30
2018-04-10T07:18:48.350Z,85.60
2018-04-10T07:21:14.696Z,85.30
2018-04-10T07:23:41.024Z,85.30
2018-04-10T07:26:07.356Z,84.80
2018-04-10T07:28:33.717Z,84.40
2018-04-10T07:31:00.857Z,84.40
2018-04-10T07:33:27.209Z,84.30
2018-04-10T07:35:53.607Z,83.70
2018-04-10T07:38:19.936Z,83.70
2018-04-10T07:40:46.281Z,83.60
2018-04-10T07:43:12.629Z,83.20
2018-04-10T07:45:39.731Z,83.00
2018-04-10T07:48:07.072Z,83.00
2018-04-10T07:50:33.411Z,82.10
2018-04-10T07:52:59.769Z,81.90
2018-04-10T07:55:26.166Z,82.10
2018-04-10T07:57:52.498Z,81.50
2018-04-10T08:00:18.828Z,81.30
2018-04-10T08:02:45.191Z,80.90
2018-04-10T08:05:11.565Z,80.90
2018-04-10T08:07:38.642Z,80.50
2018-04-10T08:10:04.971Z,80.50
2018-04-10T08:12:31.293Z,80.20
2018-04-10T08:14:57.642Z,80.00
2018-04-10T08:17:24.003Z,79.60
2018-04-10T08:19:50.354Z,80.20
2018-04-10T08:22:17.443Z,78.20
2018-04-10T08:24:43.778Z,78.10
2018-04-10T08:27:10.103Z,77.90
2018-04-10T08:29:36.458Z,77.70
2018-04-10T08:32:02.791Z,78.00
2018-04-10T08:34:29.114Z,78.20
2018-04-10T08:36:55.501Z,78.00
2018-04-10T08:39:22.676Z,77.30
2018-04-10T08:41:49.933Z,77.20
2018-04-10T08:44:16.260Z,77.10
2018-04-10T08:46:42.636Z,77.40
2018-04-10T08:49:09.007Z,77.00
2018-04-10T08:51:35.365Z,77.50
2018-04-10T08:54:01.710Z,76.80
2018-04-10T08:56:28.044Z,76.50
2018-04-10T08:58:54.400Z,76.80
2018-04-10T09:01:20.734Z,75.20
2018-04-10T09:03:47.066Z,73.50
2018-04-10T09:06:13.456Z,74.10
2018-04-10T09:08:39.795Z,74.20
2018-04-10T09:11:06.119Z,74.10
2018-04-10T09:13:32.470Z,73.00
2018-04-10T09:15:58.813Z,72.30
2018-04-10T09:18:25.201Z,72.50
2018-04-10T09:20:51.535Z,72.30
2018-04-10T09:23:17.874Z,70.80
2018-04-10T09:25:44.216Z,70.30
2018-04-10T09:28:11.558Z,70.70
2018-04-10T09:30:37.894Z,71.70
2018-04-10T09:33:04.219Z,71.00
2018-04-10T09:35:30.567Z,68.80
2018-04-10T09:37:56.918Z,68.30
2018-04-10T09:40:23.264Z,67.70
2018-04-10T09:42:49.595Z,67.80
2018-04-10T09:45:15.925Z,67.90
2018-04-10T09:47:42.995Z,68.30
2018-04-10T09:50:10.105Z,66.20
2018-04-10T09:52:36.449Z,66.20
2018-04-10T09:55:02.774Z,66.40
2018-04-10T09:57:29.136Z,66.30
2018-04-10T09:59:55.509Z,66.40
2018-04-10T10:02:21.835Z,65.20
2018-04-10T10:04:48.173Z,64.50
2018-04-10T10:07:14.508Z,66.20
2018-04-10T10:09:41.626Z,63.70
2018-04-10T10:12:07.965Z,63.60
2018-04-10T10:14:34.290Z,63.40
2018-04-10T10:17:00.614Z,61.70
2018-04-10T10:19:26.975Z,60.70
2018-04-10T10:21:53.309Z,61.10
2018-04-10T10:24:19.658Z,61.00
2018-04-10T10:26:46.728Z,62.30
2018-04-10T10:29:13.067Z,62.30
2018-04-10T10:31:39.380Z,61.40
2018-04-10T10:34:05.702Z,60.70
2018-04-10T10:36:32.026Z,58.60
2018-04-10T10:38:58.382Z,58.90
2018-04-10T10:41:24.698Z,58.10
2018-04-10T10:43:51.171Z,58.30
2018-04-10T10:46:18.245Z,57.60
2018-04-10T10:48:44.589Z,57.50
2018-04-10T10:51:10.924Z,56.00
2018-04-10T10:53:37.262Z,56.20
2018-04-10T10:56:03.608Z,56.10
2018-04-10T10:58:29.935Z,57.20
2018-04-10T11:00:56.264Z,56.10
2018-04-10T11:03:22.604Z,54.90
2018-04-10T11:05:49.007Z,55.50
2018-04-10T11:08:15.336Z,57.30
2018-04-10T11:10:41.663Z,55.10
2018-04-10T11:13:08.060Z,55.80
2018-04-10T11:15:34.398Z,54.40
2018-04-10T11:18:01.483Z,53.80
2018-04-10T11:20:27.819Z,53.80
2018-04-10T11:22:54.181Z,54.20
2018-04-10T11:25:20.508Z,52.90
2018-04-10T11:27:46.823Z,53.40
2018-04-10T11:30:13.159Z,54.60
2018-04-10T11:32:40.220Z,54.20
2018-04-10T11:35:06.554Z,54.20
2018-04-10T11:37:32.996Z,53.80
2018-04-10T11:39:59.321Z,53.10
2018-04-10T11:42:25.655Z,53.30
2018-04-10T11:44:52.000Z,52.20
2018-04-10T11:47:18.335Z,52.20
2018-04-10T11:49:45.411Z,53.10
2018-04-10T11:52:11.743Z,53.20
2018-04-10T11:54:38.101Z,53.20
2018-04-10T11:57:04.465Z,52.80
2018-04-10T11:59:30.806Z,50.70
2018-04-10T12:01:58.644Z,51.90
2018-04-10T12:04:24.991Z,51.90
2018-04-10T12:06:51.344Z,52.40
2018-04-10T12:09:18.415Z,53.20
2018-04-10T12:11:44.736Z,53.20
2018-04-10T12:14:11.105Z,52.30
2018-04-10T12:16:37.454Z,51.30
2018-04-10T12:19:03.818Z,51.50
2018-04-10T12:21:30.892Z,52.80
2018-04-10T12:23:57.245Z,52.20
2018-04-10T12:26:23.574Z,51.60
2018-04-10T12:28:49.904Z,51.60
2018-04-10T12:31:16.229Z,51.20
2018-04-10T12:33:42.567Z,50.60
2018-04-10T12:36:08.893Z,49.40
2018-04-10T12:38:35.254Z,50.20
2018-04-10T12:41:01.575Z,49.60
2018-04-10T12:43:27.927Z,49.70
2018-04-10T12:45:54.277Z,48.70
2018-04-10T12:48:21.355Z,46.90
2018-04-10T12:50:47.695Z,46.80
2018-04-10T12:53:14.051Z,46.30
2018-04-10T12:55:40.431Z,47.70
2018-04-10T12:58:07.513Z,47.40
2018-04-10T13:00:35.321Z,47.40
2018-04-10T13:03:01.645Z,48.30
2018-04-10T13:05:27.961Z,47.60
2018-04-10T13:07:54.305Z,47.00
2018-04-10T13:10:20.631Z,46.50
2018-04-10T13:12:46.969Z,47.20
2018-04-10T13:15:13.297Z,46.50
2018-04-10T13:17:39.623Z,48.50
2018-04-10T13:20:06.696Z,44.30
2018-04-10T13:22:33.767Z,43.10
2018-04-10T13:25:00.822Z,44.70
2018-04-10T13:27:27.170Z,44.60
2018-04-10T13:29:53.505Z,45.20
2018-04-10T13:32:19.830Z,45.20
2018-04-10T13:34:46.188Z,43.90
2018-04-10T13:37:12.522Z,45.10
2018-04-10T13:39:38.852Z,44.60
2018-04-10T13:42:05.182Z,45.50
2018-04-10T13:44:31.525Z,46.70
2018-04-10T13:46:57.870Z,47.50
2018-04-10T13:49:24.226Z,48.10
2018-04-10T13:51:51.291Z,50.70
2018-04-10T13:54:17.656Z,50.70
2018-04-10T13:56:44.004Z,49.60
2018-04-10T13:59:10.322Z,50.30
2018-04-10T14:01:36.647Z,51.00
2018-04-10T14:04:03.006Z,51.10
2018-04-10T14:06:29.398Z,50.80
2018-04-10T14:08:55.745Z,50.10
2018-04-10T14:11:22.063Z,51.10
2018-04-10T14:13:48.427Z,50.00
2018-04-10T14:16:14.789Z,50.10
2018-04-10T14:18:41.849Z,50.50
2018-04-10T14:21:08.213Z,50.50
2018-04-10T14:23:34.543Z,51.50
2018-04-10T14:26:00.895Z,51.10
2018-04-10T14:28:27.230Z,52.10
2018-04-10T14:30:53.602Z,52.10
2018-04-10T14:33:19.934Z,52.20
2018-04-10T14:35:47.007Z,51.30
2018-04-10T14:38:13.344Z,51.30
2018-04-10T14:40:39.725Z,53.00
2018-04-10T14:43:06.815Z,53.00
2018-04-10T14:45:33.146Z,52.90
2018-04-10T14:47:59.476Z,53.40
2018-04-10T14:50:25.813Z,53.50
2018-04-10T14:52:52.170Z,53.00
2018-04-10T14:55:18.548Z,53.60
2018-04-10T14:57:45.644Z,53.60
2018-04-10T15:00:11.978Z,53.60
2018-04-10T15:02:38.360Z,53.10
2018-04-10T15:05:05.438Z,53.00
2018-04-10T15:07:31.786Z,53.00
2018-04-10T15:09:58.121Z,53.10
2018-04-10T15:12:24.460Z,53.70
2018-04-10T15:14:50.819Z,53.30
2018-04-10T15:17:17.946Z,51.00
2018-04-10T15:19:44.313Z,51.00
2018-04-10T15:22:11.408Z,49.40
2018-04-10T15:24:37.741Z,49.40
2018-04-10T15:27:07.638Z,49.20
2018-04-10T15:29:33.980Z,48.90
2018-04-10T15:32:00.406Z,50.10
2018-04-10T15:34:26.804Z,51.50
2018-04-10T15:36:53.873Z,51.60
2018-04-10T15:39:20.217Z,51.60
2018-04-10T15:41:46.559Z,52.50
2018-04-10T15:44:12.923Z,52.80
2018-04-10T15:46:39.243Z,53.20
2018-04-10T15:49:05.575Z,53.20
2018-04-10T15:51:31.932Z,53.40
2018-04-10T15:53:59.002Z,53.50
2018-04-10T15:56:26.110Z,53.90
2018-04-10T15:58:52.414Z,53.90
2018-04-10T16:01:18.750Z,53.40
2018-04-10T16:03:45.072Z,53.70
2018-04-10T16:06:11.411Z,53.00
2018-04-10T16:08:37.749Z,53.20
2018-04-10T16:11:04.103Z,53.30
2018-04-10T16:13:30.445Z,54.10
2018-04-10T16:15:56.789Z,54.00
2018-04-10T16:18:23.848Z,54.30
2018-04-10T16:20:50.918Z,54.30
2018-04-10T16:23:17.269Z,54.30
2018-04-10T16:25:43.693Z,53.80
2018-04-10T16:28:11.051Z,53.80
2018-04-10T16:30:37.487Z,53.60
2018-04-10T16:33:03.845Z,53.60
2018-04-10T16:35:30.206Z,53.40
2018-04-10T16:37:56.541Z,52.90
2018-04-10T16:40:22.901Z,51.90
2018-04-10T16:42:49.231Z,52.30
2018-04-10T16:45:15.587Z,52.00
2018-04-10T16:47:41.923Z,53.50
2018-04-10T16:50:08.293Z,53.60
2018-04-10T16:52:35.615Z,54.20
2018-04-10T16:55:02.080Z,54.10
2018-04-10T16:57:29.162Z,54.50
2018-04-10T16:59:55.599Z,54.50
2018-04-10T17:02:23.011Z,60.50
2018-04-10T17:04:49.415Z,66.70
2018-04-10T17:07:15.816Z,70.90
2018-04-10T17:09:42.147Z,74.50
2018-04-10T17:12:08.521Z,76.20
2018-04-10T17:14:34.915Z,77.50
2018-04-10T17:17:01.270Z,79.10
2018-04-10T17:19:27.639Z,79.90
2018-04-10T17:21:54.024Z,79.50
2018-04-10T17:24:20.422Z,80.40
2018-04-10T17:26:46.805Z,81.10
2018-04-10T17:29:13.190Z,80.50
2018-04-10T17:31:39.587Z,80.90
2018-04-10T17:34:05.961Z,80.30
2018-04-10T17:36:32.369Z,80.90
2018-04-10T17:38:59.456Z,80.30
2018-04-10T17:41:25.803Z,80.10
2018-04-10T17:43:52.154Z,79.70
2018-04-10T17:46:18.508Z,80.20
2018-04-10T17:48:45.599Z,79.80
2018-04-10T17:51:11.939Z,79.70
2018-04-10T17:53:38.319Z,80.10
2018-04-10T17:56:04.686Z,80.60
2018-04-10T17:58:31.018Z,80.90
2018-04-10T18:00:57.364Z,81.20
2018-04-10T18:03:23.705Z,81.60
2018-04-10T18:05:50.117Z,82.20
2018-04-10T18:08:19.782Z,82.70
2018-04-10T18:10:56.890Z,83.60
2018-04-10T18:13:32.692Z,84.00
2018-04-10T18:15:59.154Z,84.70
2018-04-10T18:18:25.660Z,85.20
2018-04-10T18:20:52.138Z,84.50
2018-04-10T18:23:19.278Z,83.00
2018-04-10T18:25:45.724Z,82.90
2018-04-10T18:28:12.914Z,82.90
2018-04-10T18:30:39.336Z,82.80
2018-04-10T18:33:05.806Z,82.00
2018-04-10T18:35:33.059Z,82.10
2018-04-10T18:37:59.517Z,82.00
2018-04-10T18:40:25.927Z,82.20
2018-04-10T18:42:52.433Z,81.90
2018-04-10T18:45:18.906Z,82.00
2018-04-10T18:47:45.447Z,82.10
2018-04-10T18:50:11.928Z,82.20
2018-04-10T18:52:38.381Z,82.90
2018-04-10T18:55:04.829Z,83.10
2018-04-10T18:57:31.328Z,83.00
2018-04-10T18:59:57.909Z,83.10
2018-04-10T19:02:24.365Z,83.60
2018-04-10T19:04:51.523Z,83.70
2018-04-10T19:07:17.971Z,83.70
2018-04-10T19:09:44.445Z,83.80
2018-04-10T19:12:10.851Z,84.10
2018-04-10T19:14:37.239Z,83.70
2018-04-10T19:17:03.605Z,83.80
2018-04-10T19:19:30.151Z,84.20
2018-04-10T19:21:56.663Z,84.00
2018-04-10T19:24:23.893Z,84.70
2018-04-10T19:26:53.928Z,84.70
2018-04-10T19:29:20.410Z,84.80
2018-04-10T19:31:46.887Z,84.90
2018-04-10T19:34:14.119Z,86.50
2018-04-10T19:36:40.567Z,86.50
2018-04-10T19:39:07.696Z,89.20
2018-04-10T19:41:34.091Z,88.40
2018-04-10T19:44:00.439Z,88.00
2018-04-10T19:46:26.819Z,88.30
2018-04-10T19:48:53.254Z,89.10
2018-04-10T19:51:19.652Z,88.70
2018-04-10T19:53:46.089Z,90.40
2018-04-10T19:56:12.429Z,89.90
2018-04-10T19:58:38.785Z,90.10
2018-04-10T20:01:05.253Z,90.70
2018-04-10T20:03:31.659Z,90.10
2018-04-10T20:05:58.190Z,90.00
2018-04-10T20:08:24.679Z,90.20
2018-04-10T20:10:51.100Z,90.00
2018-04-10T20:13:17.541Z,90.30
2018-04-10T20:15:44.023Z,91.20
2018-04-10T20:18:11.128Z,91.40
2018-04-10T20:20:37.594Z,91.40
2018-04-10T20:23:04.832Z,91.80
2018-04-10T20:25:31.378Z,91.80
2018-04-10T20:27:57.933Z,91.60
2018-04-10T20:30:24.542Z,91.80
2018-04-10T20:32:51.091Z,92.30
2018-04-10T20:35:17.473Z,91.90
2018-04-10T20:37:43.941Z,92.30
2018-04-10T20:40:10.387Z,92.60
2018-04-10T20:42:36.886Z,92.60
2018-04-10T20:45:03.432Z,92.70
2018-04-10T20:47:29.957Z,92.60
2018-04-10T20:49:56.392Z,92.40
2018-04-10T20:52:22.877Z,92.90
2018-04-10T20:54:49.390Z,92.50
2018-04-10T20:57:15.857Z,92.70
2018-04-10T20:59:42.315Z,92.60
2018-04-10T21:02:08.782Z,92.90
2018-04-10T21:04:35.166Z,93.00
2018-04-10T21:07:02.331Z,93.80
2018-04-10T21:09:29.526Z,94.00
2018-04-10T21:11:56.022Z,94.00
2018-04-10T21:14:22.406Z,93.90
2018-04-10T21:16:48.829Z,94.10
2018-04-10T21:19:15.367Z,94.10
2018-04-10T21:21:41.869Z,93.80
2018-04-10T21:24:08.304Z,93.50
2018-04-10T21:26:34.771Z,93.80
2018-04-10T21:29:01.165Z,93.60
2018-04-10T21:31:27.574Z,93.70
2018-04-10T21:33:54.094Z,94.10
2018-04-10T21:36:20.548Z,94.20
2018-04-10T21:38:47.740Z,94.20
2018-04-10T21:41:14.227Z,94.20
2018-04-10T21:43:41.331Z,94.20
2018-04-10T21:46:07.838Z,94.10
2018-04-10T21:48:34.367Z,94.10
2018-04-10T21:51:00.890Z,94.40
2018-04-10T21:53:28.106Z,94.30
2018-04-10T21:55:54.599Z,94.30
2018-04-10T21:58:21.068Z,94.20
2018-04-10T22:00:47.611Z,94.40
2018-04-10T22:03:14.199Z,95.00
2018-04-10T22:05:41.474Z,95.20
2018-04-10T22:08:07.963Z,95.10
2018-04-10T22:10:34.420Z,95.20
2018-04-10T22:13:01.712Z,95.30
2018-04-10T22:15:28.239Z,95.30
2018-04-10T22:17:54.742Z,95.30
2018-04-10T22:20:21.252Z,95.40
2018-04-10T22:22:48.582Z,95.50
2018-04-10T22:25:15.070Z,95.50
2018-04-10T22:27:41.640Z,95.30
2018-04-10T22:30:08.123Z,95.40
2018-04-10T22:32:34.723Z,95.70
2018-04-10T22:35:01.956Z,95.90
2018-04-10T22:37:28.511Z,95.70
2018-04-10T22:39:55.830Z,95.70
2018-04-10T22:42:22.334Z,95.60
2018-04-10T22:44:48.828Z,95.60
2018-04-10T22:47:16.136Z,96.00
2018-04-10T22:49:42.615Z,96.00
2018-04-10T22:52:09.157Z,96.00
2018-04-10T22:54:36.628Z,96.00
2018-04-10T22:57:03.909Z,95.90
2018-04-10T22:59:30.490Z,95.90
2018-04-10T23:01:56.998Z,95.90
2018-04-10T23:04:23.463Z,95.90
2018-04-10T23:06:49.937Z,95.70
2018-04-10T23:09:17.173Z,95.60
2018-04-10T23:11:43.784Z,95.60
2018-04-10T23:14:10.158Z,95.60
2018-04-10T23:16:37.383Z,96.10
2018-04-10T23:19:03.788Z,95.80
2018-04-10T23:21:30.190Z,95.80
2018-04-10T23:23:57.384Z,96.00
2018-04-10T23:26:23.876Z,95.90
2018-04-10T23:28:50.282Z,95.80
2018-04-10T23:31:16.782Z,95.80
2018-04-10T23:33:43.263Z,95.80
2018-04-10T23:36:09.761Z,95.70
2018-04-10T23:38:36.347Z,95.70
2018-04-10T23:41:02.946Z,95.80
2018-04-10T23:43:29.407Z,95.80
2018-04-10T23:45:55.854Z,95.70
2018-04-10T23:48:23.273Z,95.80
2018-04-10T23:50:49.833Z,95.80
2018-04-10T23:53:16.368Z,95.90
2018-04-10T23:55:42.890Z,96.00
2018-04-10T23:58:09.293Z,96.00
